sensor_id;sensor_type;location;lat;lon;timestamp;pressure;altitude;pressure_sealevel;temperature;humidity
66164;BME280;52962;51.088;3.096;2024-02-21T00:00:24;101985.03;;;23.57;54.13
66164;BME280;52962;51.088;3.096;2024-02-21T00:02:53;101984.81;;;23.07;54.17
66164;BME280;52962;51.088;3.096;2024-02-21T00:05:23;101980.03;;;23.31;54.48
66164;BME280;52962;51.088;3.096;2024-02-21T00:07:51;101976.16;;;23.48;54.43
66164;BME280;52962;51.088;3.096;2024-02-21T00:10:22;101972.84;;;23.90;53.58
66164;BME280;52962;51.088;3.096;2024-02-21T00:12:55;101971.59;;;23.57;54.18
66164;BME280;52962;51.088;3.096;2024-02-21T00:15:22;101947.50;;;23.47;54.45
66164;BME280;52962;51.088;3.096;2024-02-21T00:17:51;101954.47;;;23.64;54.50
66164;BME280;52962;51.088;3.096;2024-02-21T00:20:19;101942.13;;;23.47;54.27
66164;BME280;52962;51.088;3.096;2024-02-21T00:22:49;101943.97;;;23.44;54.95
66164;BME280;52962;51.088;3.096;2024-02-21T00:25:17;101931.47;;;23.41;55.02
66164;BME280;52962;51.088;3.096;2024-02-21T00:27:46;101928.19;;;23.79;54.20
66164;BME280;52962;51.088;3.096;2024-02-21T00:30:14;101924.19;;;23.49;54.87
66164;BME280;52962;51.088;3.096;2024-02-21T00:32:43;101928.75;;;23.43;54.71
66164;BME280;52962;51.088;3.096;2024-02-21T00:35:11;101927.72;;;24.04;54.69
66164;BME280;52962;51.088;3.096;2024-02-21T00:37:39;101928.06;;;23.87;55.15
66164;BME280;52962;51.088;3.096;2024-02-21T00:40:07;101926.06;;;23.97;54.50
66164;BME280;52962;51.088;3.096;2024-02-21T00:42:36;101931.22;;;23.60;55.10
66164;BME280;52962;51.088;3.096;2024-02-21T00:45:07;101931.50;;;23.40;54.69
66164;BME280;52962;51.088;3.096;2024-02-21T00:47:36;101919.75;;;23.47;55.07
66164;BME280;52962;51.088;3.096;2024-02-21T00:50:05;101916.34;;;23.91;53.09
66164;BME280;52962;51.088;3.096;2024-02-21T00:52:36;101914.25;;;23.53;54.46
66164;BME280;52962;51.088;3.096;2024-02-21T00:55:05;101916.72;;;23.70;54.75
66164;BME280;52962;51.088;3.096;2024-02-21T00:57:33;101904.34;;;23.60;54.58
66164;BME280;52962;51.088;3.096;2024-02-21T01:00:01;101892.84;;;23.47;55.20
66164;BME280;52962;51.088;3.096;2024-02-21T01:02:31;101894.00;;;23.31;55.48
66164;BME280;52962;51.088;3.096;2024-02-21T01:04:59;101876.66;;;23.50;54.96
66164;BME280;52962;51.088;3.096;2024-02-21T01:07:27;101882.28;;;23.36;55.48
66164;BME280;52962;51.088;3.096;2024-02-21T01:09:55;101884.22;;;23.27;54.56
66164;BME280;52962;51.088;3.096;2024-02-21T01:12:23;101890.47;;;23.27;55.44
66164;BME280;52962;51.088;3.096;2024-02-21T01:14:51;101895.84;;;23.27;55.48
66164;BME280;52962;51.088;3.096;2024-02-21T01:17:20;101887.03;;;23.19;55.45
66164;BME280;52962;51.088;3.096;2024-02-21T01:19:49;101887.56;;;23.42;55.31
66164;BME280;52962;51.088;3.096;2024-02-21T01:22:18;101886.88;;;23.28;56.08
66164;BME280;52962;51.088;3.096;2024-02-21T01:24:47;101873.72;;;23.67;55.15
66164;BME280;52962;51.088;3.096;2024-02-21T01:27:16;101880.78;;;23.17;55.38
66164;BME280;52962;51.088;3.096;2024-02-21T01:29:44;101876.38;;;23.13;56.16
66164;BME280;52962;51.088;3.096;2024-02-21T01:32:13;101876.69;;;23.48;55.81
66164;BME280;52962;51.088;3.096;2024-02-21T01:34:41;101876.69;;;23.99;55.06
66164;BME280;52962;51.088;3.096;2024-02-21T01:37:11;101876.28;;;24.21;54.27
66164;BME280;52962;51.088;3.096;2024-02-21T01:39:39;101862.13;;;23.63;54.61
66164;BME280;52962;51.088;3.096;2024-02-21T01:42:08;101866.69;;;23.01;55.24
66164;BME280;52962;51.088;3.096;2024-02-21T01:44:36;101864.28;;;23.40;55.25
66164;BME280;52962;51.088;3.096;2024-02-21T01:47:05;101853.59;;;23.89;54.41
66164;BME280;52962;51.088;3.096;2024-02-21T01:49:33;101859.13;;;23.82;54.66
66164;BME280;52962;51.088;3.096;2024-02-21T01:52:03;101860.56;;;23.99;54.72
66164;BME280;52962;51.088;3.096;2024-02-21T01:54:36;101848.41;;;24.23;54.55
66164;BME280;52962;51.088;3.096;2024-02-21T01:57:05;101858.34;;;23.20;56.03
66164;BME280;52962;51.088;3.096;2024-02-21T01:59:33;101850.22;;;23.24;56.33
66164;BME280;52962;51.088;3.096;2024-02-21T02:02:02;101845.16;;;23.61;56.26
66164;BME280;52962;51.088;3.096;2024-02-21T02:04:30;101838.97;;;23.55;56.20
66164;BME280;52962;51.088;3.096;2024-02-21T02:06:59;101839.91;;;23.54;55.23
66164;BME280;52962;51.088;3.096;2024-02-21T02:09:27;101837.56;;;23.83;55.52
66164;BME280;52962;51.088;3.096;2024-02-21T02:11:57;101827.41;;;23.48;56.63
66164;BME280;52962;51.088;3.096;2024-02-21T02:14:26;101819.66;;;23.82;55.96
66164;BME280;52962;51.088;3.096;2024-02-21T02:16:54;101823.63;;;23.61;56.23
66164;BME280;52962;51.088;3.096;2024-02-21T02:19:23;101827.34;;;23.53;56.09
66164;BME280;52962;51.088;3.096;2024-02-21T02:21:53;101827.53;;;23.40;56.18
66164;BME280;52962;51.088;3.096;2024-02-21T02:24:25;101819.28;;;23.54;55.76
66164;BME280;52962;51.088;3.096;2024-02-21T02:26:53;101815.75;;;23.49;56.14
66164;BME280;52962;51.088;3.096;2024-02-21T02:29:21;101813.88;;;23.56;56.52
66164;BME280;52962;51.088;3.096;2024-02-21T02:31:49;101807.59;;;23.57;56.28
66164;BME280;52962;51.088;3.096;2024-02-21T02:34:17;101796.78;;;23.60;55.80
66164;BME280;52962;51.088;3.096;2024-02-21T02:36:46;101784.47;;;23.45;56.33
66164;BME280;52962;51.088;3.096;2024-02-21T02:39:16;101782.50;;;23.56;56.29
66164;BME280;52962;51.088;3.096;2024-02-21T02:41:45;101780.69;;;23.57;56.15
66164;BME280;52962;51.088;3.096;2024-02-21T02:44:13;101780.69;;;23.57;57.20
66164;BME280;52962;51.088;3.096;2024-02-21T02:46:42;101780.72;;;23.55;57.08
66164;BME280;52962;51.088;3.096;2024-02-21T02:49:10;101777.88;;;23.63;57.53
66164;BME280;52962;51.088;3.096;2024-02-21T02:51:41;101770.81;;;23.05;58.48
66164;BME280;52962;51.088;3.096;2024-02-21T02:54:09;101759.97;;;23.62;57.65
66164;BME280;52962;51.088;3.096;2024-02-21T02:56:37;101764.50;;;23.60;57.55
66164;BME280;52962;51.088;3.096;2024-02-21T02:59:08;101750.91;;;23.67;56.59
66164;BME280;52962;51.088;3.096;2024-02-21T03:01:37;101751.38;;;23.89;56.42
66164;BME280;52962;51.088;3.096;2024-02-21T03:04:05;101738.50;;;24.45;54.67
66164;BME280;52962;51.088;3.096;2024-02-21T03:06:34;101730.91;;;23.82;55.94
66164;BME280;52962;51.088;3.096;2024-02-21T03:09:03;101728.44;;;24.11;56.77
66164;BME280;52962;51.088;3.096;2024-02-21T03:11:35;101729.84;;;23.89;56.87
66164;BME280;52962;51.088;3.096;2024-02-21T03:14:09;101720.03;;;23.87;56.03
66164;BME280;52962;51.088;3.096;2024-02-21T03:16:37;101718.44;;;23.78;56.76
66164;BME280;52962;51.088;3.096;2024-02-21T03:19:05;101718.44;;;23.78;56.69
66164;BME280;52962;51.088;3.096;2024-02-21T03:21:34;101719.22;;;23.83;57.19
66164;BME280;52962;51.088;3.096;2024-02-21T03:24:04;101706.38;;;23.96;56.74
66164;BME280;52962;51.088;3.096;2024-02-21T03:26:33;101714.91;;;23.74;57.26
66164;BME280;52962;51.088;3.096;2024-02-21T03:29:03;101705.47;;;23.95;56.19
66164;BME280;52962;51.088;3.096;2024-02-21T03:31:33;101711.06;;;23.88;56.66
66164;BME280;52962;51.088;3.096;2024-02-21T03:34:02;101704.72;;;23.90;56.71
66164;BME280;52962;51.088;3.096;2024-02-21T03:36:30;101702.03;;;24.30;55.54
66164;BME280;52962;51.088;3.096;2024-02-21T03:38:58;101716.00;;;24.06;55.94
66164;BME280;52962;51.088;3.096;2024-02-21T03:41:26;101713.84;;;23.83;56.59
66164;BME280;52962;51.088;3.096;2024-02-21T03:43:54;101714.56;;;23.91;56.34
66164;BME280;52962;51.088;3.096;2024-02-21T03:46:23;101709.94;;;23.96;56.56
66164;BME280;52962;51.088;3.096;2024-02-21T03:48:53;101707.84;;;24.10;55.77
66164;BME280;52962;51.088;3.096;2024-02-21T03:51:21;101708.53;;;23.80;56.69
66164;BME280;52962;51.088;3.096;2024-02-21T03:53:49;101710.38;;;24.58;55.95
66164;BME280;52962;51.088;3.096;2024-02-21T03:56:18;101707.13;;;24.02;56.06
66164;BME280;52962;51.088;3.096;2024-02-21T03:58:45;101709.97;;;24.36;54.81
66164;BME280;52962;51.088;3.096;2024-02-21T04:01:15;101703.00;;;24.28;55.60
66164;BME280;52962;51.088;3.096;2024-02-21T04:03:44;101698.47;;;23.90;55.02
66164;BME280;52962;51.088;3.096;2024-02-21T04:06:13;101705.03;;;24.15;55.42
66164;BME280;52962;51.088;3.096;2024-02-21T04:08:42;101700.44;;;23.80;56.46
66164;BME280;52962;51.088;3.096;2024-02-21T04:11:10;101701.41;;;23.77;57.22
66164;BME280;52962;51.088;3.096;2024-02-21T04:13:39;101690.81;;;23.70;56.47
66164;BME280;52962;51.088;3.096;2024-02-21T04:16:09;101680.03;;;23.70;56.51
66164;BME280;52962;51.088;3.096;2024-02-21T04:18:39;101670.28;;;23.66;56.60
66164;BME280;52962;51.088;3.096;2024-02-21T04:21:08;101669.16;;;23.76;56.69
66164;BME280;52962;51.088;3.096;2024-02-21T04:23:40;101676.63;;;23.62;56.77
66164;BME280;52962;51.088;3.096;2024-02-21T04:26:08;101659.66;;;23.98;56.10
66164;BME280;52962;51.088;3.096;2024-02-21T04:28:37;101666.56;;;24.11;56.48
66164;BME280;52962;51.088;3.096;2024-02-21T04:31:05;101662.06;;;24.12;56.14
66164;BME280;52962;51.088;3.096;2024-02-21T04:33:34;101655.38;;;23.91;55.48
66164;BME280;52962;51.088;3.096;2024-02-21T04:36:03;101653.94;;;23.75;56.78
66164;BME280;52962;51.088;3.096;2024-02-21T04:38:32;101645.31;;;23.99;56.44
66164;BME280;52962;51.088;3.096;2024-02-21T04:41:01;101647.97;;;23.61;56.62
66164;BME280;52962;51.088;3.096;2024-02-21T04:43:29;101642.44;;;23.22;57.63
66164;BME280;52962;51.088;3.096;2024-02-21T04:45:57;101634.63;;;23.56;56.86
66164;BME280;52962;51.088;3.096;2024-02-21T04:48:25;101637.25;;;23.98;56.87
66164;BME280;52962;51.088;3.096;2024-02-21T04:50:54;101631.97;;;23.93;55.73
66164;BME280;52962;51.088;3.096;2024-02-21T04:53:22;101627.53;;;23.92;55.78
66164;BME280;52962;51.088;3.096;2024-02-21T04:55:50;101625.28;;;23.74;55.07
66164;BME280;52962;51.088;3.096;2024-02-21T04:58:20;101617.88;;;23.84;56.31
66164;BME280;52962;51.088;3.096;2024-02-21T05:00:48;101609.41;;;23.62;56.40
66164;BME280;52962;51.088;3.096;2024-02-21T05:03:16;101606.38;;;23.77;56.65
66164;BME280;52962;51.088;3.096;2024-02-21T05:05:44;101609.56;;;23.53;56.95
66164;BME280;52962;51.088;3.096;2024-02-21T05:08:12;101604.00;;;23.63;56.48
66164;BME280;52962;51.088;3.096;2024-02-21T05:10:40;101603.41;;;23.47;57.16
66164;BME280;52962;51.088;3.096;2024-02-21T05:13:09;101594.47;;;23.45;56.87
66164;BME280;52962;51.088;3.096;2024-02-21T05:15:38;101587.63;;;23.74;55.57
66164;BME280;52962;51.088;3.096;2024-02-21T05:18:07;101582.97;;;23.82;55.14
66164;BME280;52962;51.088;3.096;2024-02-21T05:20:35;101579.78;;;23.63;56.53
66164;BME280;52962;51.088;3.096;2024-02-21T05:23:03;101560.09;;;23.63;56.14
66164;BME280;52962;51.088;3.096;2024-02-21T05:25:31;101563.75;;;23.59;56.18
66164;BME280;52962;51.088;3.096;2024-02-21T05:28:00;101571.06;;;23.51;56.57
66164;BME280;52962;51.088;3.096;2024-02-21T05:30:29;101568.88;;;23.71;55.92
66164;BME280;52962;51.088;3.096;2024-02-21T05:32:58;101559.13;;;23.65;56.56
66164;BME280;52962;51.088;3.096;2024-02-21T05:35:26;101549.72;;;23.85;55.80
66164;BME280;52962;51.088;3.096;2024-02-21T05:37:55;101540.13;;;23.73;56.14
66164;BME280;52962;51.088;3.096;2024-02-21T05:40:23;101537.28;;;23.39;57.46
66164;BME280;52962;51.088;3.096;2024-02-21T05:42:52;101538.50;;;23.66;56.16
66164;BME280;52962;51.088;3.096;2024-02-21T05:45:21;101529.44;;;23.70;56.17
66164;BME280;52962;51.088;3.096;2024-02-21T05:47:49;101531.97;;;23.77;55.65
66164;BME280;52962;51.088;3.096;2024-02-21T05:50:19;101528.13;;;23.47;56.22
66164;BME280;52962;51.088;3.096;2024-02-21T05:52:50;101528.97;;;23.49;56.90
66164;BME280;52962;51.088;3.096;2024-02-21T05:55:19;101528.84;;;23.14;57.84
66164;BME280;52962;51.088;3.096;2024-02-21T05:57:47;101525.06;;;23.23;57.56
66164;BME280;52962;51.088;3.096;2024-02-21T06:00:15;101522.03;;;23.39;57.24
66164;BME280;52962;51.088;3.096;2024-02-21T06:02:44;101522.88;;;23.41;56.99
66164;BME280;52962;51.088;3.096;2024-02-21T06:05:12;101515.94;;;23.31;57.42
66164;BME280;52962;51.088;3.096;2024-02-21T06:07:41;101526.63;;;23.34;56.88
66164;BME280;52962;51.088;3.096;2024-02-21T06:10:10;101521.06;;;23.42;57.64
66164;BME280;52962;51.088;3.096;2024-02-21T06:12:38;101521.13;;;23.40;57.69
66164;BME280;52962;51.088;3.096;2024-02-21T06:15:07;101513.09;;;23.39;56.38
66164;BME280;52962;51.088;3.096;2024-02-21T06:17:35;101503.66;;;23.61;56.49
66164;BME280;52962;51.088;3.096;2024-02-21T06:20:04;101502.03;;;23.54;56.07
66164;BME280;52962;51.088;3.096;2024-02-21T06:22:34;101499.16;;;23.62;56.33
66164;BME280;52962;51.088;3.096;2024-02-21T06:25:07;101490.84;;;23.32;56.81
66164;BME280;52962;51.088;3.096;2024-02-21T06:27:36;101485.53;;;23.29;56.33
66164;BME280;52962;51.088;3.096;2024-02-21T06:30:05;101485.38;;;23.35;56.78
66164;BME280;52962;51.088;3.096;2024-02-21T06:32:33;101485.09;;;23.07;57.75
66164;BME280;52962;51.088;3.096;2024-02-21T06:35:01;101483.06;;;23.60;56.34
66164;BME280;52962;51.088;3.096;2024-02-21T06:37:29;101479.56;;;23.57;56.33
66164;BME280;52962;51.088;3.096;2024-02-21T06:39:59;101477.56;;;23.65;56.71
66164;BME280;52962;51.088;3.096;2024-02-21T06:42:29;101477.47;;;23.29;55.96
66164;BME280;52962;51.088;3.096;2024-02-21T06:44:58;101463.56;;;23.49;56.03
66164;BME280;52962;51.088;3.096;2024-02-21T06:47:26;101463.03;;;23.33;56.06
66164;BME280;52962;51.088;3.096;2024-02-21T06:49:54;101464.16;;;23.23;56.35
66164;BME280;52962;51.088;3.096;2024-02-21T06:52:23;101457.56;;;23.38;55.74
66164;BME280;52962;51.088;3.096;2024-02-21T06:54:52;101457.63;;;23.35;56.54
66164;BME280;52962;51.088;3.096;2024-02-21T06:57:20;101452.03;;;23.44;56.43
66164;BME280;52962;51.088;3.096;2024-02-21T06:59:51;101451.72;;;23.19;56.90
66164;BME280;52962;51.088;3.096;2024-02-21T07:02:19;101453.00;;;23.41;56.74
66164;BME280;52962;51.088;3.096;2024-02-21T07:04:47;101460.94;;;23.46;55.89
66164;BME280;52962;51.088;3.096;2024-02-21T07:07:16;101458.59;;;23.71;55.94
66164;BME280;52962;51.088;3.096;2024-02-21T07:09:44;101446.31;;;23.61;56.08
66164;BME280;52962;51.088;3.096;2024-02-21T07:12:15;101436.97;;;23.75;55.49
66164;BME280;52962;51.088;3.096;2024-02-21T07:14:44;101433.94;;;23.54;55.42
66164;BME280;52962;51.088;3.096;2024-02-21T07:17:17;101420.25;;;23.63;55.45
66164;BME280;52962;51.088;3.096;2024-02-21T07:19:46;101417.31;;;23.35;55.74
66164;BME280;52962;51.088;3.096;2024-02-21T07:22:14;101426.25;;;23.35;55.43
66164;BME280;52962;51.088;3.096;2024-02-21T07:24:43;101409.84;;;23.09;56.78
66164;BME280;52962;51.088;3.096;2024-02-21T07:27:10;101416.91;;;23.52;55.97
66164;BME280;52962;51.088;3.096;2024-02-21T07:29:41;101406.41;;;23.79;55.81
66164;BME280;52962;51.088;3.096;2024-02-21T07:32:09;101397.41;;;23.43;55.63
66164;BME280;52962;51.088;3.096;2024-02-21T07:34:39;101381.16;;;23.48;55.30
66164;BME280;52962;51.088;3.096;2024-02-21T07:37:07;101374.41;;;23.69;55.45
66164;BME280;52962;51.088;3.096;2024-02-21T07:39:35;101369.94;;;23.68;55.19
66164;BME280;52962;51.088;3.096;2024-02-21T07:42:04;101373.16;;;23.45;55.63
66164;BME280;52962;51.088;3.096;2024-02-21T07:44:32;101367.41;;;23.62;55.74
66164;BME280;52962;51.088;3.096;2024-02-21T07:47:01;101361.53;;;23.82;54.26
66164;BME280;52962;51.088;3.096;2024-02-21T07:49:29;101355.25;;;23.81;53.90
66164;BME280;52962;51.088;3.096;2024-02-21T07:52:00;101352.47;;;23.48;54.01
66164;BME280;52962;51.088;3.096;2024-02-21T07:54:30;101345.75;;;23.68;54.80
66164;BME280;52962;51.088;3.096;2024-02-21T07:56:58;101330.44;;;23.70;53.97
66164;BME280;52962;51.088;3.096;2024-02-21T07:59:26;101329.44;;;23.74;53.68
66164;BME280;52962;51.088;3.096;2024-02-21T08:01:56;101328.25;;;23.50;54.66
66164;BME280;52962;51.088;3.096;2024-02-21T08:04:24;101319.97;;;23.22;55.17
66164;BME280;52962;51.088;3.096;2024-02-21T08:06:52;101323.44;;;23.27;55.74
66164;BME280;52962;51.088;3.096;2024-02-21T08:09:26;101323.63;;;23.20;55.46
66164;BME280;52962;51.088;3.096;2024-02-21T08:11:55;101323.53;;;23.60;55.47
66164;BME280;52962;51.088;3.096;2024-02-21T08:14:28;101321.34;;;23.40;55.99
66164;BME280;52962;51.088;3.096;2024-02-21T08:16:56;101319.50;;;23.42;55.03
66164;BME280;52962;51.088;3.096;2024-02-21T08:19:24;101317.06;;;23.31;56.31
66164;BME280;52962;51.088;3.096;2024-02-21T08:21:53;101311.31;;;23.46;55.28
66164;BME280;52962;51.088;3.096;2024-02-21T08:24:21;101298.94;;;23.04;55.24
66164;BME280;52962;51.088;3.096;2024-02-21T08:26:51;101295.25;;;23.43;56.09
66164;BME280;52962;51.088;3.096;2024-02-21T08:29:19;101295.34;;;23.40;55.60
66164;BME280;52962;51.088;3.096;2024-02-21T08:31:48;101293.06;;;23.61;56.17
66164;BME280;52962;51.088;3.096;2024-02-21T08:34:16;101290.28;;;23.28;55.74
66164;BME280;52962;51.088;3.096;2024-02-21T08:36:45;101279.28;;;23.37;55.99
66164;BME280;52962;51.088;3.096;2024-02-21T08:39:13;101266.78;;;23.36;55.74
66164;BME280;52962;51.088;3.096;2024-02-21T08:41:43;101264.38;;;24.23;53.43
66164;BME280;52962;51.088;3.096;2024-02-21T08:44:24;101260.88;;;24.20;53.58
66164;BME280;52962;51.088;3.096;2024-02-21T08:46:56;101254.28;;;24.00;53.63
66164;BME280;52962;51.088;3.096;2024-02-21T08:49:24;101246.69;;;23.51;54.67
66164;BME280;52962;51.088;3.096;2024-02-21T08:52:00;101246.72;;;23.49;54.95
66164;BME280;52962;51.088;3.096;2024-02-21T08:54:29;101234.16;;;23.16;54.92
66164;BME280;52962;51.088;3.096;2024-02-21T08:56:59;101221.47;;;23.57;55.34
66164;BME280;52962;51.088;3.096;2024-02-21T08:59:29;101226.69;;;23.63;54.07
66164;BME280;52962;51.088;3.096;2024-02-21T09:01:57;101223.59;;;23.42;53.98
66164;BME280;52962;51.088;3.096;2024-02-21T09:04:27;101215.94;;;23.92;53.38
66164;BME280;52962;51.088;3.096;2024-02-21T09:06:56;101207.88;;;23.92;54.17
66164;BME280;52962;51.088;3.096;2024-02-21T09:09:24;101194.25;;;23.69;54.23
66164;BME280;52962;51.088;3.096;2024-02-21T09:11:55;101180.13;;;23.92;52.93
66164;BME280;52962;51.088;3.096;2024-02-21T09:14:25;101183.19;;;24.09;53.47
66164;BME280;52962;51.088;3.096;2024-02-21T09:16:54;101194.31;;;23.66;53.68
66164;BME280;52962;51.088;3.096;2024-02-21T09:19:22;101183.06;;;23.84;54.15
66164;BME280;52962;51.088;3.096;2024-02-21T09:21:51;101181.94;;;23.91;54.75
66164;BME280;52962;51.088;3.096;2024-02-21T09:24:19;101181.41;;;23.46;54.04
66164;BME280;52962;51.088;3.096;2024-02-21T09:26:47;101167.09;;;23.78;54.50
66164;BME280;52962;51.088;3.096;2024-02-21T09:29:16;101161.13;;;23.67;54.35
66164;BME280;52962;51.088;3.096;2024-02-21T09:31:44;101152.06;;;23.71;54.38
66164;BME280;52962;51.088;3.096;2024-02-21T09:34:16;101156.22;;;24.10;53.49
66164;BME280;52962;51.088;3.096;2024-02-21T09:36:44;101140.19;;;24.07;52.53
66164;BME280;52962;51.088;3.096;2024-02-21T09:39:12;101149.81;;;24.14;53.75
66164;BME280;52962;51.088;3.096;2024-02-21T09:41:47;101153.56;;;23.81;53.07
66164;BME280;52962;51.088;3.096;2024-02-21T09:44:16;101139.03;;;23.87;53.09
66164;BME280;52962;51.088;3.096;2024-02-21T09:46:44;101132.56;;;23.92;53.13
66164;BME280;52962;51.088;3.096;2024-02-21T09:49:23;101121.75;;;24.23;53.11
66164;BME280;52962;51.088;3.096;2024-02-21T09:51:55;101122.91;;;24.14;53.61
66164;BME280;52962;51.088;3.096;2024-02-21T09:54:25;101117.34;;;24.21;53.61
66164;BME280;52962;51.088;3.096;2024-02-21T09:56:56;101106.13;;;24.36;52.17
66164;BME280;52962;51.088;3.096;2024-02-21T09:59:28;101089.28;;;24.29;53.36
66164;BME280;52962;51.088;3.096;2024-02-21T10:01:57;101091.69;;;24.09;53.21
66164;BME280;52962;51.088;3.096;2024-02-21T10:04:30;101095.94;;;24.45;52.38
66164;BME280;52962;51.088;3.096;2024-02-21T10:06:59;101090.94;;;24.33;51.88
66164;BME280;52962;51.088;3.096;2024-02-21T10:09:28;101085.38;;;24.39;52.33
66164;BME280;52962;51.088;3.096;2024-02-21T10:12:07;101080.22;;;24.32;52.95
66164;BME280;52962;51.088;3.096;2024-02-21T10:14:36;101087.59;;;24.53;52.61
66164;BME280;52962;51.088;3.096;2024-02-21T10:17:04;101080.38;;;24.27;52.33
66164;BME280;52962;51.088;3.096;2024-02-21T10:19:38;101073.50;;;24.17;53.51
66164;BME280;52962;51.088;3.096;2024-02-21T10:22:08;101070.41;;;24.31;53.33
66164;BME280;52962;51.088;3.096;2024-02-21T10:24:37;101063.56;;;24.19;52.46
66164;BME280;52962;51.088;3.096;2024-02-21T10:27:09;101068.75;;;24.27;53.79
66164;BME280;52962;51.088;3.096;2024-02-21T10:29:39;101056.88;;;24.32;53.55
66164;BME280;52962;51.088;3.096;2024-02-21T10:32:09;101052.66;;;24.24;53.44
66164;BME280;52962;51.088;3.096;2024-02-21T10:34:41;101051.16;;;23.87;54.23
66164;BME280;52962;51.088;3.096;2024-02-21T10:37:11;101044.78;;;23.62;54.72
66164;BME280;52962;51.088;3.096;2024-02-21T10:39:40;101042.72;;;23.98;55.34
66164;BME280;52962;51.088;3.096;2024-02-21T10:42:11;101031.72;;;24.05;54.24
66164;BME280;52962;51.088;3.096;2024-02-21T10:44:40;101026.25;;;24.08;54.43
66164;BME280;52962;51.088;3.096;2024-02-21T10:47:10;101021.63;;;23.86;55.40
66164;BME280;52962;51.088;3.096;2024-02-21T10:49:42;101006.63;;;24.05;54.19
66164;BME280;52962;51.088;3.096;2024-02-21T10:52:20;101000.31;;;23.79;54.47
66164;BME280;52962;51.088;3.096;2024-02-21T10:54:56;101000.22;;;24.09;54.43
66164;BME280;52962;51.088;3.096;2024-02-21T10:57:27;100995.41;;;24.47;53.97
66164;BME280;52962;51.088;3.096;2024-02-21T10:59:56;100999.03;;;24.70;54.79
66164;BME280;52962;51.088;3.096;2024-02-21T11:02:27;100987.44;;;24.68;53.87
66164;BME280;52962;51.088;3.096;2024-02-21T11:04:59;100978.78;;;24.34;53.68
66164;BME280;52962;51.088;3.096;2024-02-21T11:07:30;100975.50;;;24.24;53.81
66164;BME280;52962;51.088;3.096;2024-02-21T11:10:00;100970.66;;;24.35;53.55
66164;BME280;52962;51.088;3.096;2024-02-21T11:12:32;100961.13;;;24.52;53.12
66164;BME280;52962;51.088;3.096;2024-02-21T11:15:04;100953.00;;;24.53;53.85
66164;BME280;52962;51.088;3.096;2024-02-21T11:17:33;100957.28;;;24.59;53.37
66164;BME280;52962;51.088;3.096;2024-02-21T11:20:17;100942.53;;;24.44;52.69
66164;BME280;52962;51.088;3.096;2024-02-21T11:22:45;100944.28;;;24.19;53.56
66164;BME280;52962;51.088;3.096;2024-02-21T11:25:21;100932.25;;;24.04;53.91
66164;BME280;52962;51.088;3.096;2024-02-21T11:27:49;100932.34;;;24.01;54.08
66164;BME280;52962;51.088;3.096;2024-02-21T11:30:17;100937.78;;;23.73;54.72
66164;BME280;52962;51.088;3.096;2024-02-21T11:33:00;100925.19;;;23.45;55.55
66164;BME280;52962;51.088;3.096;2024-02-21T11:35:34;100909.94;;;24.00;55.28
66164;BME280;52962;51.088;3.096;2024-02-21T11:38:10;100901.09;;;23.97;54.33
66164;BME280;52962;51.088;3.096;2024-02-21T11:40:44;100905.16;;;23.84;54.15
66164;BME280;52962;51.088;3.096;2024-02-21T11:43:13;100905.88;;;23.89;55.12
66164;BME280;52962;51.088;3.096;2024-02-21T11:45:41;100898.28;;;23.75;55.15
66164;BME280;52962;51.088;3.096;2024-02-21T11:48:09;100885.25;;;23.89;55.99
66164;BME280;52962;51.088;3.096;2024-02-21T11:50:39;100881.78;;;23.86;55.34
66164;BME280;52962;51.088;3.096;2024-02-21T11:53:07;100860.91;;;24.43;53.93
66164;BME280;52962;51.088;3.096;2024-02-21T11:55:36;100862.41;;;24.75;53.40
66164;BME280;52962;51.088;3.096;2024-02-21T11:58:04;100851.97;;;24.66;52.94
66164;BME280;52962;51.088;3.096;2024-02-21T12:00:32;100838.06;;;24.30;52.85
66164;BME280;52962;51.088;3.096;2024-02-21T12:03:01;100823.66;;;24.06;53.22
66164;BME280;52962;51.088;3.096;2024-02-21T12:05:29;100813.50;;;24.14;53.95
66164;BME280;52962;51.088;3.096;2024-02-21T12:08:00;100805.88;;;24.27;53.32
66164;BME280;52962;51.088;3.096;2024-02-21T12:10:29;100798.94;;;23.95;53.06
66164;BME280;52962;51.088;3.096;2024-02-21T12:13:05;100786.75;;;24.35;53.75
66164;BME280;52962;51.088;3.096;2024-02-21T12:15:33;100767.50;;;24.69;51.64
66164;BME280;52962;51.088;3.096;2024-02-21T12:18:01;100757.50;;;24.72;51.49
66164;BME280;52962;51.088;3.096;2024-02-21T12:20:30;100749.06;;;24.82;51.65
66164;BME280;52962;51.088;3.096;2024-02-21T12:23:01;100753.53;;;24.36;52.26
66164;BME280;52962;51.088;3.096;2024-02-21T12:25:30;100736.03;;;24.48;51.85
66164;BME280;52962;51.088;3.096;2024-02-21T12:27:59;100738.56;;;24.29;51.85
66164;BME280;52962;51.088;3.096;2024-02-21T12:30:27;100741.41;;;24.48;52.80
66164;BME280;52962;51.088;3.096;2024-02-21T12:32:57;100732.47;;;24.47;52.93
66164;BME280;52962;51.088;3.096;2024-02-21T12:35:26;100726.69;;;24.80;52.02
66164;BME280;52962;51.088;3.096;2024-02-21T12:37:54;100717.56;;;24.38;52.27
66164;BME280;52962;51.088;3.096;2024-02-21T12:40:24;100700.69;;;24.57;52.56
66164;BME280;52962;51.088;3.096;2024-02-21T12:42:53;100687.66;;;24.46;52.47
66164;BME280;52962;51.088;3.096;2024-02-21T12:45:21;100684.94;;;24.46;53.46
66164;BME280;52962;51.088;3.096;2024-02-21T12:47:49;100680.16;;;24.31;54.56
66164;BME280;52962;51.088;3.096;2024-02-21T12:50:17;100675.38;;;24.39;55.59
66164;BME280;52962;51.088;3.096;2024-02-21T12:52:46;100657.03;;;24.49;55.53
66164;BME280;52962;51.088;3.096;2024-02-21T12:55:15;100652.84;;;24.41;54.72
66164;BME280;52962;51.088;3.096;2024-02-21T12:57:44;100651.25;;;24.12;55.02
66164;BME280;52962;51.088;3.096;2024-02-21T13:00:13;100641.78;;;24.26;56.05